sensor_id;sensor_type;location;lat;lon;timestamp;temperature;humidity
16384;DHT22;8301;51.440;6.610;2024-02-15T00:00:56;11.70;99.90
16384;DHT22;8301;51.440;6.610;2024-02-15T00:03:25;11.70;99.90
16384;DHT22;8301;51.440;6.610;2024-02-15T00:05:51;11.70;99.90
16384;DHT22;8301;51.440;6.610;2024-02-15T00:08:18;11.70;99.90
16384;DHT22;8301;51.440;6.610;2024-02-15T00:10:46;11.70;99.90
16384;DHT22;8301;51.440;6.610;2024-02-15T00:13:13;11.70;99.90
16384;DHT22;8301;51.440;6.610;2024-02-15T00:15:40;11.70;99.90
16384;DHT22;8301;51.440;6.610;2024-02-15T00:18:07;11.70;99.90
16384;DHT22;8301;51.440;6.610;2024-02-15T00:20:34;11.70;99.90
16384;DHT22;8301;51.440;6.610;2024-02-15T00:23:01;11.60;99.90
16384;DHT22;8301;51.440;6.610;2024-02-15T00:25:27;11.60;99.90
16384;DHT22;8301;51.440;6.610;2024-02-15T00:27:56;11.70;99.90
16384;DHT22;8301;51.440;6.610;2024-02-15T00:30:23;11.60;99.90
16384;DHT22;8301;51.440;6.610;2024-02-15T00:32:50;11.70;99.90
16384;DHT22;8301;51.440;6.610;2024-02-15T00:35:17;11.60;99.90
16384;DHT22;8301;51.440;6.610;2024-02-15T00:37:44;11.70;99.90
16384;DHT22;8301;51.440;6.610;2024-02-15T00:40:11;11.70;99.90
16384;DHT22;8301;51.440;6.610;2024-02-15T00:42:38;11.70;99.90
16384;DHT22;8301;51.440;6.610;2024-02-15T00:45:05;11.70;99.90
16384;DHT22;8301;51.440;6.610;2024-02-15T00:47:33;11.70;99.90
16384;DHT22;8301;51.440;6.610;2024-02-15T00:50:00;11.70;99.90
16384;DHT22;8301;51.440;6.610;2024-02-15T00:52:27;11.70;99.90
16384;DHT22;8301;51.440;6.610;2024-02-15T00:54:55;11.70;99.90
16384;DHT22;8301;51.440;6.610;2024-02-15T00:57:22;11.80;99.90
16384;DHT22;8301;51.440;6.610;2024-02-15T00:59:48;11.80;99.90
16384;DHT22;8301;51.440;6.610;2024-02-15T01:02:15;11.80;99.90
16384;DHT22;8301;51.440;6.610;2024-02-15T01:04:43;11.80;99.90
16384;DHT22;8301;51.440;6.610;2024-02-15T01:07:12;11.80;99.90
16384;DHT22;8301;51.440;6.610;2024-02-15T01:09:39;11.80;99.90
16384;DHT22;8301;51.440;6.610;2024-02-15T01:12:06;11.80;99.90
16384;DHT22;8301;51.440;6.610;2024-02-15T01:14:33;11.80;99.90
16384;DHT22;8301;51.440;6.610;2024-02-15T01:17:01;11.80;99.90
16384;DHT22;8301;51.440;6.610;2024-02-15T01:19:28;11.80;99.90
16384;DHT22;8301;51.440;6.610;2024-02-15T01:21:55;11.80;99.90
16384;DHT22;8301;51.440;6.610;2024-02-15T01:24:24;11.80;99.90
16384;DHT22;8301;51.440;6.610;2024-02-15T01:26:51;11.80;99.90
16384;DHT22;8301;51.440;6.610;2024-02-15T01:29:17;11.80;99.90
16384;DHT22;8301;51.440;6.610;2024-02-15T01:31:44;11.70;99.90
16384;DHT22;8301;51.440;6.610;2024-02-15T01:34:11;11.70;99.90
16384;DHT22;8301;51.440;6.610;2024-02-15T01:36:38;11.80;99.90
16384;DHT22;8301;51.440;6.610;2024-02-15T01:39:05;11.70;99.90
16384;DHT22;8301;51.440;6.610;2024-02-15T01:41:31;11.70;99.90
16384;DHT22;8301;51.440;6.610;2024-02-15T01:43:58;11.70;99.90
16384;DHT22;8301;51.440;6.610;2024-02-15T01:46:26;11.70;99.90
16384;DHT22;8301;51.440;6.610;2024-02-15T01:48:53;11.70;99.90
16384;DHT22;8301;51.440;6.610;2024-02-15T01:51:22;11.70;99.90
16384;DHT22;8301;51.440;6.610;2024-02-15T01:53:49;11.70;99.90
16384;DHT22;8301;51.440;6.610;2024-02-15T01:56:16;11.70;99.90
16384;DHT22;8301;51.440;6.610;2024-02-15T01:58:43;11.70;99.90
16384;DHT22;8301;51.440;6.610;2024-02-15T02:01:11;11.70;99.90
16384;DHT22;8301;51.440;6.610;2024-02-15T02:03:39;11.70;99.90
16384;DHT22;8301;51.440;6.610;2024-02-15T02:06:06;11.70;99.90
16384;DHT22;8301;51.440;6.610;2024-02-15T02:08:33;11.70;99.90
16384;DHT22;8301;51.440;6.610;2024-02-15T02:11:00;11.70;99.90
16384;DHT22;8301;51.440;6.610;2024-02-15T02:13:27;11.70;99.90
16384;DHT22;8301;51.440;6.610;2024-02-15T02:15:54;11.60;99.90
16384;DHT22;8301;51.440;6.610;2024-02-15T02:18:22;11.70;99.90
16384;DHT22;8301;51.440;6.610;2024-02-15T02:20:51;11.70;99.90
16384;DHT22;8301;51.440;6.610;2024-02-15T02:23:17;11.70;99.90
16384;DHT22;8301;51.440;6.610;2024-02-15T02:25:46;11.70;99.90
16384;DHT22;8301;51.440;6.610;2024-02-15T02:28:15;11.70;99.90
16384;DHT22;8301;51.440;6.610;2024-02-15T02:30:43;11.70;99.90
16384;DHT22;8301;51.440;6.610;2024-02-15T02:33:11;11.80;99.90
16384;DHT22;8301;51.440;6.610;2024-02-15T02:35:40;11.80;99.90
16384;DHT22;8301;51.440;6.610;2024-02-15T02:38:07;11.80;99.90
16384;DHT22;8301;51.440;6.610;2024-02-15T02:40:33;11.80;99.90
16384;DHT22;8301;51.440;6.610;2024-02-15T02:43:01;11.80;99.90
16384;DHT22;8301;51.440;6.610;2024-02-15T02:45:28;11.80;99.90
16384;DHT22;8301;51.440;6.610;2024-02-15T02:47:55;11.80;99.90
16384;DHT22;8301;51.440;6.610;2024-02-15T02:50:22;11.80;99.90
16384;DHT22;8301;51.440;6.610;2024-02-15T02:52:49;11.80;99.90
16384;DHT22;8301;51.440;6.610;2024-02-15T02:55:16;11.80;99.90
16384;DHT22;8301;51.440;6.610;2024-02-15T02:57:43;11.80;99.90
16384;DHT22;8301;51.440;6.610;2024-02-15T03:00:10;11.80;99.90
16384;DHT22;8301;51.440;6.610;2024-02-15T03:02:43;11.80;99.90
16384;DHT22;8301;51.440;6.610;2024-02-15T03:05:10;11.80;99.90
16384;DHT22;8301;51.440;6.610;2024-02-15T03:07:38;11.80;99.90
16384;DHT22;8301;51.440;6.610;2024-02-15T03:10:08;11.80;99.90
16384;DHT22;8301;51.440;6.610;2024-02-15T03:12:39;11.90;99.90
16384;DHT22;8301;51.440;6.610;2024-02-15T03:15:06;11.90;99.90
16384;DHT22;8301;51.440;6.610;2024-02-15T03:17:39;11.90;99.90
16384;DHT22;8301;51.440;6.610;2024-02-15T03:20:06;11.90;99.90
16384;DHT22;8301;51.440;6.610;2024-02-15T03:22:35;11.90;99.90
16384;DHT22;8301;51.440;6.610;2024-02-15T03:25:06;11.90;99.90
16384;DHT22;8301;51.440;6.610;2024-02-15T03:27:34;11.90;99.90
16384;DHT22;8301;51.440;6.610;2024-02-15T03:30:03;11.90;99.90
16384;DHT22;8301;51.440;6.610;2024-02-15T03:32:30;11.90;99.90
16384;DHT22;8301;51.440;6.610;2024-02-15T03:34:57;11.80;99.90
16384;DHT22;8301;51.440;6.610;2024-02-15T03:37:24;11.90;99.90
16384;DHT22;8301;51.440;6.610;2024-02-15T03:39:51;11.90;99.90
16384;DHT22;8301;51.440;6.610;2024-02-15T03:42:18;11.90;99.90
16384;DHT22;8301;51.440;6.610;2024-02-15T03:44:45;11.80;99.90
16384;DHT22;8301;51.440;6.610;2024-02-15T03:47:13;11.80;99.90
16384;DHT22;8301;51.440;6.610;2024-02-15T03:49:41;11.90;99.90
16384;DHT22;8301;51.440;6.610;2024-02-15T03:52:08;11.80;99.90
16384;DHT22;8301;51.440;6.610;2024-02-15T03:54:38;11.80;99.90
16384;DHT22;8301;51.440;6.610;2024-02-15T03:57:05;11.80;99.90
16384;DHT22;8301;51.440;6.610;2024-02-15T03:59:32;11.80;99.90
16384;DHT22;8301;51.440;6.610;2024-02-15T04:02:00;11.80;99.90
16384;DHT22;8301;51.440;6.610;2024-02-15T04:04:31;11.80;99.90
16384;DHT22;8301;51.440;6.610;2024-02-15T04:06:58;11.80;99.90
16384;DHT22;8301;51.440;6.610;2024-02-15T04:09:25;11.80;99.90
16384;DHT22;8301;51.440;6.610;2024-02-15T04:11:52;11.80;99.90
16384;DHT22;8301;51.440;6.610;2024-02-15T04:14:23;11.80;99.90
16384;DHT22;8301;51.440;6.610;2024-02-15T04:16:49;11.80;99.90
16384;DHT22;8301;51.440;6.610;2024-02-15T04:19:16;11.80;99.90
16384;DHT22;8301;51.440;6.610;2024-02-15T04:21:45;11.80;99.90
16384;DHT22;8301;51.440;6.610;2024-02-15T04:24:13;11.80;99.90
16384;DHT22;8301;51.440;6.610;2024-02-15T04:26:40;11.80;99.90
16384;DHT22;8301;51.440;6.610;2024-02-15T04:29:07;11.80;99.90
16384;DHT22;8301;51.440;6.610;2024-02-15T04:31:38;11.80;99.90
16384;DHT22;8301;51.440;6.610;2024-02-15T04:34:05;11.80;99.90
16384;DHT22;8301;51.440;6.610;2024-02-15T04:36:32;11.80;99.90
16384;DHT22;8301;51.440;6.610;2024-02-15T04:39:00;11.80;99.90
16384;DHT22;8301;51.440;6.610;2024-02-15T04:41:30;11.80;99.90
16384;DHT22;8301;51.440;6.610;2024-02-15T04:43:57;11.80;99.90
16384;DHT22;8301;51.440;6.610;2024-02-15T04:46:24;11.80;99.90
16384;DHT22;8301;51.440;6.610;2024-02-15T04:48:51;11.80;99.90
16384;DHT22;8301;51.440;6.610;2024-02-15T04:51:17;11.80;99.90
16384;DHT22;8301;51.440;6.610;2024-02-15T04:53:45;11.80;99.90
16384;DHT22;8301;51.440;6.610;2024-02-15T04:56:15;11.80;99.90
16384;DHT22;8301;51.440;6.610;2024-02-15T04:58:42;11.80;99.90
16384;DHT22;8301;51.440;6.610;2024-02-15T05:01:13;11.80;99.90
16384;DHT22;8301;51.440;6.610;2024-02-15T05:03:41;11.80;99.90
16384;DHT22;8301;51.440;6.610;2024-02-15T05:06:08;11.80;99.90
16384;DHT22;8301;51.440;6.610;2024-02-15T05:08:36;11.80;99.90
16384;DHT22;8301;51.440;6.610;2024-02-15T05:11:04;11.80;99.90
16384;DHT22;8301;51.440;6.610;2024-02-15T05:13:33;11.70;99.90
16384;DHT22;8301;51.440;6.610;2024-02-15T05:15:59;11.80;99.90
16384;DHT22;8301;51.440;6.610;2024-02-15T05:18:26;11.70;99.90
16384;DHT22;8301;51.440;6.610;2024-02-15T05:20:54;11.70;99.90
16384;DHT22;8301;51.440;6.610;2024-02-15T05:23:20;11.70;99.90
16384;DHT22;8301;51.440;6.610;2024-02-15T05:25:47;11.70;99.90
16384;DHT22;8301;51.440;6.610;2024-02-15T05:28:14;11.70;99.90
16384;DHT22;8301;51.440;6.610;2024-02-15T05:30:43;11.70;99.90
16384;DHT22;8301;51.440;6.610;2024-02-15T05:33:10;11.70;99.90
16384;DHT22;8301;51.440;6.610;2024-02-15T05:35:37;11.70;99.90
16384;DHT22;8301;51.440;6.610;2024-02-15T05:38:05;11.70;99.90
16384;DHT22;8301;51.440;6.610;2024-02-15T05:40:32;11.70;99.90
16384;DHT22;8301;51.440;6.610;2024-02-15T05:42:59;11.70;99.90
16384;DHT22;8301;51.440;6.610;2024-02-15T05:45:28;11.70;99.90
16384;DHT22;8301;51.440;6.610;2024-02-15T05:48:03;11.70;99.90
16384;DHT22;8301;51.440;6.610;2024-02-15T05:50:32;11.70;99.90
16384;DHT22;8301;51.440;6.610;2024-02-15T05:52:59;11.70;99.90
16384;DHT22;8301;51.440;6.610;2024-02-15T05:55:27;11.70;99.90
16384;DHT22;8301;51.440;6.610;2024-02-15T05:57:55;11.70;99.90
16384;DHT22;8301;51.440;6.610;2024-02-15T06:00:22;11.70;99.90
16384;DHT22;8301;51.440;6.610;2024-02-15T06:02:50;11.70;99.90
16384;DHT22;8301;51.440;6.610;2024-02-15T06:05:18;11.70;99.90
16384;DHT22;8301;51.440;6.610;2024-02-15T06:07:45;11.70;99.90
16384;DHT22;8301;51.440;6.610;2024-02-15T06:10:12;11.60;99.90
16384;DHT22;8301;51.440;6.610;2024-02-15T06:12:40;11.60;99.90
16384;DHT22;8301;51.440;6.610;2024-02-15T06:15:07;11.60;99.90
16384;DHT22;8301;51.440;6.610;2024-02-15T06:17:37;11.60;99.90
16384;DHT22;8301;51.440;6.610;2024-02-15T06:20:04;11.60;99.90
16384;DHT22;8301;51.440;6.610;2024-02-15T06:22:31;11.60;99.90
16384;DHT22;8301;51.440;6.610;2024-02-15T06:24:58;11.60;99.90
16384;DHT22;8301;51.440;6.610;2024-02-15T06:27:24;11.60;99.90
16384;DHT22;8301;51.440;6.610;2024-02-15T06:29:51;11.60;99.90
16384;DHT22;8301;51.440;6.610;2024-02-15T06:32:36;11.60;99.90
16384;DHT22;8301;51.440;6.610;2024-02-15T06:35:21;11.60;99.90
16384;DHT22;8301;51.440;6.610;2024-02-15T06:38:05;11.60;99.90
16384;DHT22;8301;51.440;6.610;2024-02-15T06:40:50;11.60;99.90
16384;DHT22;8301;51.440;6.610;2024-02-15T06:43:19;11.60;99.90
16384;DHT22;8301;51.440;6.610;2024-02-15T06:45:47;11.60;99.90
16384;DHT22;8301;51.440;6.610;2024-02-15T06:48:16;11.60;99.90
16384;DHT22;8301;51.440;6.610;2024-02-15T06:50:43;11.60;99.90
16384;DHT22;8301;51.440;6.610;2024-02-15T06:53:09;11.60;99.90
16384;DHT22;8301;51.440;6.610;2024-02-15T06:55:37;11.60;99.90
16384;DHT22;8301;51.440;6.610;2024-02-15T06:58:05;11.60;99.90
16384;DHT22;8301;51.440;6.610;2024-02-15T07:00:31;11.60;99.90
16384;DHT22;8301;51.440;6.610;2024-02-15T07:02:58;11.60;99.90
16384;DHT22;8301;51.440;6.610;2024-02-15T07:05:25;11.60;99.90
16384;DHT22;8301;51.440;6.610;2024-02-15T07:07:53;11.60;99.90
16384;DHT22;8301;51.440;6.610;2024-02-15T07:10:23;11.60;99.90
16384;DHT22;8301;51.440;6.610;2024-02-15T07:12:50;11.60;99.90
16384;DHT22;8301;51.440;6.610;2024-02-15T07:15:17;11.50;99.90
16384;DHT22;8301;51.440;6.610;2024-02-15T07:17:44;11.50;99.90
16384;DHT22;8301;51.440;6.610;2024-02-15T07:20:12;11.50;99.90
16384;DHT22;8301;51.440;6.610;2024-02-15T07:22:40;11.50;99.90
16384;DHT22;8301;51.440;6.610;2024-02-15T07:25:07;11.50;99.90
16384;DHT22;8301;51.440;6.610;2024-02-15T07:27:34;11.50;99.90
16384;DHT22;8301;51.440;6.610;2024-02-15T07:30:02;11.50;99.90
16384;DHT22;8301;51.440;6.610;2024-02-15T07:32:31;11.50;99.90
16384;DHT22;8301;51.440;6.610;2024-02-15T07:34:59;11.50;99.90
16384;DHT22;8301;51.440;6.610;2024-02-15T07:37:26;11.50;99.90
16384;DHT22;8301;51.440;6.610;2024-02-15T07:39:55;11.60;99.90
16384;DHT22;8301;51.440;6.610;2024-02-15T07:42:21;11.60;99.90
16384;DHT22;8301;51.440;6.610;2024-02-15T07:44:50;11.60;99.90
16384;DHT22;8301;51.440;6.610;2024-02-15T07:47:17;11.60;99.90
16384;DHT22;8301;51.440;6.610;2024-02-15T07:49:45;11.60;99.90
16384;DHT22;8301;51.440;6.610;2024-02-15T07:52:12;11.60;99.90
16384;DHT22;8301;51.440;6.610;2024-02-15T07:54:39;11.60;99.90
16384;DHT22;8301;51.440;6.610;2024-02-15T07:57:06;11.60;99.90
16384;DHT22;8301;51.440;6.610;2024-02-15T07:59:33;11.60;99.90
16384;DHT22;8301;51.440;6.610;2024-02-15T08:02:01;11.60;99.90
16384;DHT22;8301;51.440;6.610;2024-02-15T08:04:28;11.70;99.90
16384;DHT22;8301;51.440;6.610;2024-02-15T08:06:55;11.70;99.90
16384;DHT22;8301;51.440;6.610;2024-02-15T08:09:22;11.70;99.90
16384;DHT22;8301;51.440;6.610;2024-02-15T08:11:50;11.70;99.90
16384;DHT22;8301;51.440;6.610;2024-02-15T08:14:17;11.70;99.90
16384;DHT22;8301;51.440;6.610;2024-02-15T08:16:45;11.60;99.90
16384;DHT22;8301;51.440;6.610;2024-02-15T08:19:12;11.60;99.90
16384;DHT22;8301;51.440;6.610;2024-02-15T08:21:39;11.60;99.90
16384;DHT22;8301;51.440;6.610;2024-02-15T08:24:07;11.60;99.90
16384;DHT22;8301;51.440;6.610;2024-02-15T08:26:38;11.60;99.90
16384;DHT22;8301;51.440;6.610;2024-02-15T08:29:05;11.50;99.90
16384;DHT22;8301;51.440;6.610;2024-02-15T08:31:39;11.60;99.90
16384;DHT22;8301;51.440;6.610;2024-02-15T08:34:07;11.50;99.90
16384;DHT22;8301;51.440;6.610;2024-02-15T08:36:36;11.50;99.90
16384;DHT22;8301;51.440;6.610;2024-02-15T08:39:04;11.50;99.90
16384;DHT22;8301;51.440;6.610;2024-02-15T08:41:31;11.50;99.90
16384;DHT22;8301;51.440;6.610;2024-02-15T08:43:58;11.50;99.90
16384;DHT22;8301;51.440;6.610;2024-02-15T08:46:26;11.60;99.90
16384;DHT22;8301;51.440;6.610;2024-02-15T08:48:53;11.60;99.90
16384;DHT22;8301;51.440;6.610;2024-02-15T08:51:20;11.60;99.90
16384;DHT22;8301;51.440;6.610;2024-02-15T08:53:48;11.60;99.90
16384;DHT22;8301;51.440;6.610;2024-02-15T08:56:15;11.60;99.90
16384;DHT22;8301;51.440;6.610;2024-02-15T08:58:42;11.60;99.90
16384;DHT22;8301;51.440;6.610;2024-02-15T09:01:08;11.70;99.90
16384;DHT22;8301;51.440;6.610;2024-02-15T09:03:35;11.70;99.90
16384;DHT22;8301;51.440;6.610;2024-02-15T09:06:02;11.70;99.90
16384;DHT22;8301;51.440;6.610;2024-02-15T09:08:30;11.70;99.90
16384;DHT22;8301;51.440;6.610;2024-02-15T09:10:57;11.80;99.90
16384;DHT22;8301;51.440;6.610;2024-02-15T09:13:24;11.80;99.90
16384;DHT22;8301;51.440;6.610;2024-02-15T09:15:51;11.80;99.90
16384;DHT22;8301;51.440;6.610;2024-02-15T09:18:17;11.80;99.90
16384;DHT22;8301;51.440;6.610;2024-02-15T09:20:46;11.90;99.90
16384;DHT22;8301;51.440;6.610;2024-02-15T09:23:14;11.90;99.90
16384;DHT22;8301;51.440;6.610;2024-02-15T09:25:41;11.90;99.90
16384;DHT22;8301;51.440;6.610;2024-02-15T09:28:11;12.00;99.90
16384;DHT22;8301;51.440;6.610;2024-02-15T09:30:39;12.00;99.90
16384;DHT22;8301;51.440;6.610;2024-02-15T09:33:06;12.00;99.90
16384;DHT22;8301;51.440;6.610;2024-02-15T09:35:34;12.00;99.90
16384;DHT22;8301;51.440;6.610;2024-02-15T09:38:01;12.00;99.90
16384;DHT22;8301;51.440;6.610;2024-02-15T09:40:28;12.00;99.90
16384;DHT22;8301;51.440;6.610;2024-02-15T09:42:55;12.10;99.90
16384;DHT22;8301;51.440;6.610;2024-02-15T09:45:22;12.10;99.90
16384;DHT22;8301;51.440;6.610;2024-02-15T09:47:50;12.20;99.90
16384;DHT22;8301;51.440;6.610;2024-02-15T09:50:18;12.20;99.90
16384;DHT22;8301;51.440;6.610;2024-02-15T09:55:13;12.30;99.90
16384;DHT22;8301;51.440;6.610;2024-02-15T09:57:46;12.30;99.90
16384;DHT22;8301;51.440;6.610;2024-02-15T10:00:14;12.30;99.90
16384;DHT22;8301;51.440;6.610;2024-02-15T10:02:43;12.40;99.90
16384;DHT22;8301;51.440;6.610;2024-02-15T10:05:12;12.40;99.90
16384;DHT22;8301;51.440;6.610;2024-02-15T10:07:39;12.40;99.90
16384;DHT22;8301;51.440;6.610;2024-02-15T10:10:24;12.50;99.90
16384;DHT22;8301;51.440;6.610;2024-02-15T10:12:37;12.50;99.90
16384;DHT22;8301;51.440;6.610;2024-02-15T10:15:09;12.60;99.90
16384;DHT22;8301;51.440;6.610;2024-02-15T10:17:36;12.60;99.90
16384;DHT22;8301;51.440;6.610;2024-02-15T10:20:03;12.70;99.90
16384;DHT22;8301;51.440;6.610;2024-02-15T10:22:30;12.70;99.90
16384;DHT22;8301;51.440;6.610;2024-02-15T10:25:13;12.70;99.90
16384;DHT22;8301;51.440;6.610;2024-02-15T10:27:40;12.80;99.90
16384;DHT22;8301;51.440;6.610;2024-02-15T10:30:17;12.80;99.90
16384;DHT22;8301;51.440;6.610;2024-02-15T10:32:45;12.80;99.90
16384;DHT22;8301;51.440;6.610;2024-02-15T10:35:19;12.90;99.90
16384;DHT22;8301;51.440;6.610;2024-02-15T10:37:43;13.00;99.90
16384;DHT22;8301;51.440;6.610;2024-02-15T10:40:10;13.00;99.90
16384;DHT22;8301;51.440;6.610;2024-02-15T10:42:40;13.00;99.90
16384;DHT22;8301;51.440;6.610;2024-02-15T10:45:08;13.10;99.90
16384;DHT22;8301;51.440;6.610;2024-02-15T10:47:39;13.20;99.90
16384;DHT22;8301;51.440;6.610;2024-02-15T10:50:06;13.20;99.90
16384;DHT22;8301;51.440;6.610;2024-02-15T10:52:33;13.30;99.90
16384;DHT22;8301;51.440;6.610;2024-02-15T10:55:04;13.30;99.90
16384;DHT22;8301;51.440;6.610;2024-02-15T10:57:33;13.30;99.90
16384;DHT22;8301;51.440;6.610;2024-02-15T11:00:01;13.40;99.90
16384;DHT22;8301;51.440;6.610;2024-02-15T11:02:31;13.50;99.90
16384;DHT22;8301;51.440;6.610;2024-02-15T11:05:08;13.60;99.90
16384;DHT22;8301;51.440;6.610;2024-02-15T11:07:33;13.60;99.90
16384;DHT22;8301;51.440;6.610;2024-02-15T11:10:00;13.60;99.90
16384;DHT22;8301;51.440;6.610;2024-02-15T11:12:27;13.70;99.90
16384;DHT22;8301;51.440;6.610;2024-02-15T11:14:55;13.70;99.90
16384;DHT22;8301;51.440;6.610;2024-02-15T11:20:06;13.80;99.90
16384;DHT22;8301;51.440;6.610;2024-02-15T11:22:35;13.80;99.90
16384;DHT22;8301;51.440;6.610;2024-02-15T11:25:08;13.90;99.90
16384;DHT22;8301;51.440;6.610;2024-02-15T11:30:04;14.00;99.90
16384;DHT22;8301;51.440;6.610;2024-02-15T11:35:09;14.20;99.90
16384;DHT22;8301;51.440;6.610;2024-02-15T11:40:19;14.30;99.90
16384;DHT22;8301;51.440;6.610;2024-02-15T11:42:47;14.40;99.90
16384;DHT22;8301;51.440;6.610;2024-02-15T11:45:15;14.50;99.90
16384;DHT22;8301;51.440;6.610;2024-02-15T11:47:48;14.60;99.90
16384;DHT22;8301;51.440;6.610;2024-02-15T11:50:17;14.60;99.90
16384;DHT22;8301;51.440;6.610;2024-02-15T11:52:44;14.70;99.90
16384;DHT22;8301;51.440;6.610;2024-02-15T11:55:13;14.90;99.90
16384;DHT22;8301;51.440;6.610;2024-02-15T11:57:40;15.10;99.90
16384;DHT22;8301;51.440;6.610;2024-02-15T12:03:06;15.30;99.90
16384;DHT22;8301;51.440;6.610;2024-02-15T12:05:34;15.40;99.90
16384;DHT22;8301;51.440;6.610;2024-02-15T12:08:20;15.60;99.90
16384;DHT22;8301;51.440;6.610;2024-02-15T12:11:05;15.60;99.90
16384;DHT22;8301;51.440;6.610;2024-02-15T12:13:50;15.70;99.90
16384;DHT22;8301;51.440;6.610;2024-02-15T12:16:35;15.80;1.00
16384;DHT22;8301;51.440;6.610;2024-02-15T12:19:20;15.80;99.90
16384;DHT22;8301;51.440;6.610;2024-02-15T12:21:47;15.80;99.90
16384;DHT22;8301;51.440;6.610;2024-02-15T12:24:15;15.80;99.90
16384;DHT22;8301;51.440;6.610;2024-02-15T12:26:43;15.80;99.90
16384;DHT22;8301;51.440;6.610;2024-02-15T12:29:09;15.90;99.90
16384;DHT22;8301;51.440;6.610;2024-02-15T12:31:38;15.90;99.90
16384;DHT22;8301;51.440;6.610;2024-02-15T12:34:05;15.90;99.90
16384;DHT22;8301;51.440;6.610;2024-02-15T12:36:34;16.00;99.90
16384;DHT22;8301;51.440;6.610;2024-02-15T12:39:05;16.10;99.90
16384;DHT22;8301;51.440;6.610;2024-02-15T12:41:40;16.20;99.90
16384;DHT22;8301;51.440;6.610;2024-02-15T12:44:07;16.20;99.90
16384;DHT22;8301;51.440;6.610;2024-02-15T12:46:34;16.30;99.90
16384;DHT22;8301;51.440;6.610;2024-02-15T12:49:07;16.40;99.90
16384;DHT22;8301;51.440;6.610;2024-02-15T12:51:34;16.50;99.90
16384;DHT22;8301;51.440;6.610;2024-02-15T12:54:08;16.50;99.90
16384;DHT22;8301;51.440;6.610;2024-02-15T12:56:36;16.50;99.90
16384;DHT22;8301;51.440;6.610;2024-02-15T12:59:05;16.60;99.90
16384;DHT22;8301;51.440;6.610;2024-02-15T13:01:32;16.60;99.90
16384;DHT22;8301;51.440;6.610;2024-02-15T13:03:59;16.70;99.90
16384;DHT22;8301;51.440;6.610;2024-02-15T13:06:27;16.60;99.90
16384;DHT22;8301;51.440;6.610;2024-02-15T13:08:54;16.70;99.90
16384;DHT22;8301;51.440;6.610;2024-02-15T13:11:21;16.70;99.90
16384;DHT22;8301;51.440;6.610;2024-02-15T13:13:49;16.70;99.90
16384;DHT22;8301;51.440;6.610;2024-02-15T13:16:17;16.70;99.90
16384;DHT22;8301;51.440;6.610;2024-02-15T13:18:44;16.70;99.90
16384;DHT22;8301;51.440;6.610;2024-02-15T13:21:12;16.80;99.90
16384;DHT22;8301;51.440;6.610;2024-02-15T13:23:39;16.80;99.90
16384;DHT22;8301;51.440;6.610;2024-02-15T13:26:06;16.60;99.90
16384;DHT22;8301;51.440;6.610;2024-02-15T13:28:34;16.50;99.90
16384;DHT22;8301;51.440;6.610;2024-02-15T13:33:28;16.30;99.90
16384;DHT22;8301;51.440;6.610;2024-02-15T13:35:56;16.30;99.90
16384;DHT22;8301;51.440;6.610;2024-02-15T13:38:23;16.20;99.90
16384;DHT22;8301;51.440;6.610;2024-02-15T13:40:50;16.20;99.90
16384;DHT22;8301;51.440;6.610;2024-02-15T13:43:18;16.20;99.90
16384;DHT22;8301;51.440;6.610;2024-02-15T13:45:45;16.20;99.90
16384;DHT22;8301;51.440;6.610;2024-02-15T13:48:12;16.20;99.90
16384;DHT22;8301;51.440;6.610;2024-02-15T13:50:42;16.30;99.90
16384;DHT22;8301;51.440;6.610;2024-02-15T13:53:09;16.30;99.90
16384;DHT22;8301;51.440;6.610;2024-02-15T13:55:38;16.40;99.90
16384;DHT22;8301;51.440;6.610;2024-02-15T13:58:05;16.40;99.90
16384;DHT22;8301;51.440;6.610;2024-02-15T14:00:34;16.50;99.90
16384;DHT22;8301;51.440;6.610;2024-02-15T14:03:02;16.60;99.90
16384;DHT22;8301;51.440;6.610;2024-02-15T14:05:31;16.50;99.90
16384;DHT22;8301;51.440;6.610;2024-02-15T14:07:59;16.50;99.90
16384;DHT22;8301;51.440;6.610;2024-02-15T14:10:28;16.60;99.90
16384;DHT22;8301;51.440;6.610;2024-02-15T14:12:55;16.70;99.90
16384;DHT22;8301;51.440;6.610;2024-02-15T14:15:23;16.80;99.90
16384;DHT22;8301;51.440;6.610;2024-02-15T14:17:50;16.90;99.90
16384;DHT22;8301;51.440;6.610;2024-02-15T14:20:18;17.00;99.90
16384;DHT22;8301;51.440;6.610;2024-02-15T14:22:47;16.90;99.90
16384;DHT22;8301;51.440;6.610;2024-02-15T14:25:23;16.80;99.90
16384;DHT22;8301;51.440;6.610;2024-02-15T14:27:53;16.80;99.90
16384;DHT22;8301;51.440;6.610;2024-02-15T14:30:19;16.80;99.90
16384;DHT22;8301;51.440;6.610;2024-02-15T14:33:04;16.70;99.90
16384;DHT22;8301;51.440;6.610;2024-02-15T14:35:33;16.60;99.90
16384;DHT22;8301;51.440;6.610;2024-02-15T14:38:05;16.70;99.90
16384;DHT22;8301;51.440;6.610;2024-02-15T14:40:34;16.70;99.90
16384;DHT22;8301;51.440;6.610;2024-02-15T14:43:01;16.60;99.90
16384;DHT22;8301;51.440;6.610;2024-02-15T14:45:28;16.60;99.90
16384;DHT22;8301;51.440;6.610;2024-02-15T14:47:55;16.50;99.90
16384;DHT22;8301;51.440;6.610;2024-02-15T14:50:22;16.40;99.90
16384;DHT22;8301;51.440;6.610;2024-02-15T14:52:49;16.30;99.90
16384;DHT22;8301;51.440;6.610;2024-02-15T14:55:18;16.30;99.90
16384;DHT22;8301;51.440;6.610;2024-02-15T14:57:45;16.20;99.90
16384;DHT22;8301;51.440;6.610;2024-02-15T15:00:12;16.10;99.90
16384;DHT22;8301;51.440;6.610;2024-02-15T15:02:44;16.10;99.90
16384;DHT22;8301;51.440;6.610;2024-02-15T15:05:15;16.00;99.90
16384;DHT22;8301;51.440;6.610;2024-02-15T15:07:59;15.90;99.90
16384;DHT22;8301;51.440;6.610;2024-02-15T15:10:45;15.90;99.90
16384;DHT22;8301;51.440;6.610;2024-02-15T15:13:30;15.80;99.90
16384;DHT22;8301;51.440;6.610;2024-02-15T15:15:58;15.80;99.90
16384;DHT22;8301;51.440;6.610;2024-02-15T15:18:25;15.80;99.90
16384;DHT22;8301;51.440;6.610;2024-02-15T15:20:51;15.80;99.90
16384;DHT22;8301;51.440;6.610;2024-02-15T15:23:18;15.70;99.90
16384;DHT22;8301;51.440;6.610;2024-02-15T15:25:45;15.70;99.90
16384;DHT22;8301;51.440;6.610;2024-02-15T15:28:12;15.60;99.90
16384;DHT22;8301;51.440;6.610;2024-02-15T15:30:39;15.60;99.90
16384;DHT22;8301;51.440;6.610;2024-02-15T15:33:06;15.60;99.90
16384;DHT22;8301;51.440;6.610;2024-02-15T15:35:34;15.60;99.90
16384;DHT22;8301;51.440;6.610;2024-02-15T15:38:01;15.60;99.90
16384;DHT22;8301;51.440;6.610;2024-02-15T15:40:28;15.60;99.90
16384;DHT22;8301;51.440;6.610;2024-02-15T15:42:55;15.60;99.90
16384;DHT22;8301;51.440;6.610;2024-02-15T15:45:22;15.60;99.90
16384;DHT22;8301;51.440;6.610;2024-02-15T15:47:51;15.60;99.90
16384;DHT22;8301;51.440;6.610;2024-02-15T15:50:18;15.60;99.90
16384;DHT22;8301;51.440;6.610;2024-02-15T15:52:45;15.60;99.90
16384;DHT22;8301;51.440;6.610;2024-02-15T15:55:12;15.60;99.90
16384;DHT22;8301;51.440;6.610;2024-02-15T15:57:39;15.60;99.90
16384;DHT22;8301;51.440;6.610;2024-02-15T16:00:06;15.60;99.90
16384;DHT22;8301;51.440;6.610;2024-02-15T16:02:35;15.50;99.90
16384;DHT22;8301;51.440;6.610;2024-02-15T16:05:02;15.50;99.90
16384;DHT22;8301;51.440;6.610;2024-02-15T16:07:28;15.50;99.90
16384;DHT22;8301;51.440;6.610;2024-02-15T16:09:55;15.50;99.90